createdAt,value
2022-12-06T00:01:35.790Z,11.30
2022-12-06T00:04:11.345Z,11.23
2022-12-06T00:06:46.046Z,10.31
2022-12-06T00:09:23.353Z,10.69
2022-12-06T00:11:53.119Z,10.91
2022-12-06T00:14:22.878Z,10.29
2022-12-06T00:16:51.588Z,10.44
2022-12-06T00:19:22.813Z,9.65
2022-12-06T00:21:51.611Z,10.15
2022-12-06T00:24:20.471Z,9.87
2022-12-06T00:26:49.340Z,10.02
2022-12-06T00:29:18.483Z,10.03
2022-12-06T00:31:45.573Z,10.28
2022-12-06T00:34:12.749Z,9.90
2022-12-06T00:36:40.888Z,9.63
2022-12-06T00:39:09.335Z,9.63
2022-12-06T00:41:37.571Z,9.76
2022-12-06T00:44:09.717Z,9.95
2022-12-06T00:46:36.767Z,9.50
2022-12-06T00:49:04.654Z,10.03
2022-12-06T00:51:32.900Z,10.40
2022-12-06T00:54:05.010Z,10.57
2022-12-06T00:56:31.985Z,9.73
2022-12-06T00:58:59.156Z,9.90
2022-12-06T01:01:28.061Z,11.01
2022-12-06T01:03:56.820Z,10.17
2022-12-06T01:06:26.143Z,10.37
2022-12-06T01:08:53.216Z,10.13
2022-12-06T01:11:21.416Z,9.86
2022-12-06T01:13:48.840Z,9.85
2022-12-06T01:16:18.906Z,9.61
2022-12-06T01:18:45.720Z,9.71
2022-12-06T01:21:18.371Z,10.01
2022-12-06T01:23:45.661Z,9.51
2022-12-06T01:26:15.741Z,9.38
2022-12-06T01:28:42.860Z,9.34
2022-12-06T01:31:11.075Z,9.55
2022-12-06T01:33:37.839Z,9.40
2022-12-06T01:36:05.952Z,9.67
2022-12-06T01:38:32.761Z,9.20
2022-12-06T01:41:00.122Z,9.65
2022-12-06T01:43:39.598Z,8.85
2022-12-06T01:46:42.181Z,8.93
2022-12-06T01:49:12.944Z,9.26
2022-12-06T01:51:42.496Z,8.98
2022-12-06T01:54:10.817Z,9.24
2022-12-06T01:56:37.694Z,9.45
2022-12-06T01:59:04.487Z,9.63
2022-12-06T02:01:32.599Z,8.87
2022-12-06T02:04:00.577Z,9.04
2022-12-06T02:06:32.867Z,9.89
2022-12-06T02:09:00.173Z,9.29
2022-12-06T02:11:30.765Z,9.51
2022-12-06T02:14:09.166Z,10.11
2022-12-06T02:16:54.844Z,9.92
2022-12-06T02:19:58.431Z,9.95
2022-12-06T02:22:57.103Z,10.57
2022-12-06T02:26:01.477Z,10.50
2022-12-06T02:29:04.175Z,10.80
2022-12-06T02:31:40.280Z,10.80
2022-12-06T02:34:40.343Z,10.79
2022-12-06T02:37:29.721Z,10.68
2022-12-06T02:40:06.541Z,11.61
2022-12-06T02:42:48.220Z,11.05
2022-12-06T02:45:22.638Z,10.76
2022-12-06T02:47:49.610Z,11.78
2022-12-06T02:50:22.214Z,12.02
2022-12-06T02:52:56.510Z,11.30
2022-12-06T02:55:23.620Z,11.87
2022-12-06T02:57:51.865Z,11.61
2022-12-06T03:00:55.584Z,11.81
2022-12-06T03:04:00.764Z,12.19
2022-12-06T03:06:33.376Z,11.28
2022-12-06T03:09:51.454Z,11.05
2022-12-06T03:12:41.063Z,10.52
2022-12-06T03:15:27.270Z,10.37
2022-12-06T03:18:28.014Z,10.48
2022-12-06T03:21:06.680Z,10.77
2022-12-06T03:23:39.862Z,10.12
2022-12-06T03:26:11.037Z,10.40
2022-12-06T03:28:38.216Z,10.60
2022-12-06T03:31:09.175Z,10.61
2022-12-06T03:33:36.655Z,10.22
2022-12-06T03:36:06.403Z,10.41
2022-12-06T03:38:44.680Z,10.67
2022-12-06T03:41:11.767Z,10.67
2022-12-06T03:43:38.875Z,10.47
2022-12-06T03:46:07.135Z,10.42
2022-12-06T03:48:44.212Z,10.53
2022-12-06T03:51:18.170Z,10.71
2022-12-06T03:53:54.733Z,10.83
2022-12-06T03:56:21.844Z,11.01
2022-12-06T03:58:48.989Z,10.84
2022-12-06T04:01:21.179Z,10.42
2022-12-06T04:03:50.925Z,10.73
2022-12-06T04:06:18.258Z,11.64
2022-12-06T04:08:45.764Z,11.23
2022-12-06T04:11:12.758Z,11.17
2022-12-06T04:14:05.531Z,10.39
2022-12-06T04:16:46.747Z,10.33
2022-12-06T04:19:33.726Z,10.90
2022-12-06T04:22:06.488Z,10.46
2022-12-06T04:24:36.020Z,11.06
2022-12-06T04:27:08.899Z,11.16
2022-12-06T04:29:36.004Z,11.03
2022-12-06T04:32:08.797Z,11.11
2022-12-06T04:34:35.822Z,10.87
2022-12-06T04:37:02.964Z,11.16
2022-12-06T04:39:54.388Z,10.85
2022-12-06T04:42:21.463Z,10.94
2022-12-06T04:44:48.624Z,11.04
2022-12-06T04:47:18.432Z,11.44
2022-12-06T04:49:45.957Z,11.38
2022-12-06T04:52:13.027Z,11.45
2022-12-06T04:54:44.440Z,12.15
2022-12-06T04:57:12.321Z,11.90
2022-12-06T04:59:44.361Z,11.85
2022-12-06T05:02:17.265Z,11.32
2022-12-06T05:05:03.033Z,11.75
2022-12-06T05:07:30.471Z,12.04
2022-12-06T05:10:00.986Z,11.94
2022-12-06T05:12:27.805Z,12.49
2022-12-06T05:14:54.893Z,12.30
2022-12-06T05:17:22.430Z,12.22
2022-12-06T05:19:49.528Z,12.47
2022-12-06T05:22:17.376Z,12.18
2022-12-06T05:24:44.839Z,12.10
2022-12-06T05:27:17.721Z,12.58
2022-12-06T05:29:46.212Z,12.63
2022-12-06T05:32:13.304Z,12.87
2022-12-06T05:34:42.767Z,12.46
2022-12-06T05:37:09.995Z,12.54
2022-12-06T05:39:38.356Z,12.31
2022-12-06T05:42:39.325Z,13.93
2022-12-06T05:45:01.095Z,13.54
2022-12-06T05:47:30.783Z,13.63
2022-12-06T05:50:14.742Z,13.58
2022-12-06T05:52:42.046Z,13.12
2022-12-06T05:55:11.917Z,13.82
2022-12-06T05:57:47.073Z,13.29
2022-12-06T06:00:16.184Z,13.74
2022-12-06T06:02:46.708Z,13.65
2022-12-06T06:05:17.473Z,14.23
2022-12-06T06:07:44.369Z,14.22
2022-12-06T06:10:12.047Z,13.81
2022-12-06T06:12:40.301Z,14.12
2022-12-06T06:15:10.781Z,13.52
2022-12-06T06:17:38.373Z,13.97
2022-12-06T06:20:06.659Z,13.31
2022-12-06T06:22:34.821Z,13.14
2022-12-06T06:25:05.680Z,13.64
2022-12-06T06:27:33.353Z,13.69
2022-12-06T06:30:00.316Z,13.73
2022-12-06T06:32:28.022Z,13.52
2022-12-06T06:34:57.621Z,26.97
2022-12-06T06:37:27.053Z,22.43
2022-12-06T06:39:54.278Z,18.93
2022-12-06T06:42:21.068Z,13.57
2022-12-06T06:44:47.905Z,12.72
2022-12-06T06:47:18.233Z,12.88
2022-12-06T06:49:45.412Z,12.38
2022-12-06T06:52:13.614Z,12.79
2022-12-06T06:54:54.569Z,12.86
2022-12-06T06:57:24.210Z,13.13
2022-12-06T06:59:51.125Z,12.51
2022-12-06T07:02:18.676Z,12.52
2022-12-06T07:04:46.514Z,12.42
2022-12-06T07:07:20.788Z,11.88
2022-12-06T07:09:48.077Z,12.07
2022-12-06T07:12:15.417Z,12.03
2022-12-06T07:14:42.521Z,12.18
2022-12-06T07:17:10.057Z,12.08
2022-12-06T07:19:37.277Z,11.66
2022-12-06T07:22:05.001Z,11.28
2022-12-06T07:24:36.940Z,16.20
2022-12-06T07:27:07.649Z,13.80
2022-12-06T07:29:36.257Z,12.35
2022-12-06T07:32:04.169Z,12.83
2022-12-06T07:34:33.760Z,12.12
2022-12-06T07:37:00.565Z,11.41
2022-12-06T07:39:29.569Z,10.90
2022-12-06T07:41:56.368Z,11.13
2022-12-06T07:44:23.442Z,12.12
2022-12-06T07:46:55.082Z,12.16
2022-12-06T07:49:23.775Z,11.91
2022-12-06T07:51:50.982Z,11.57
2022-12-06T07:54:18.770Z,12.12
2022-12-06T07:56:46.873Z,11.88
2022-12-06T07:59:15.369Z,11.41
2022-12-06T08:01:42.276Z,11.39
2022-12-06T08:04:12.801Z,11.18
2022-12-06T08:06:39.677Z,11.38
2022-12-06T08:09:06.552Z,10.68
2022-12-06T08:11:34.614Z,11.53
2022-12-06T08:14:03.558Z,11.06
2022-12-06T08:16:30.616Z,10.84
2022-12-06T08:19:01.541Z,11.11
2022-12-06T08:21:28.311Z,11.18
2022-12-06T08:23:58.185Z,11.66
2022-12-06T08:26:27.816Z,12.30
2022-12-06T08:28:55.709Z,12.38
2022-12-06T08:31:24.595Z,13.17
2022-12-06T08:33:59.192Z,14.52
2022-12-06T08:36:32.382Z,14.90
2022-12-06T08:38:59.947Z,14.66
2022-12-06T08:41:26.946Z,14.13
2022-12-06T08:43:55.240Z,13.35
2022-12-06T08:46:22.377Z,12.92
2022-12-06T08:48:49.274Z,13.27
2022-12-06T08:51:16.222Z,14.23
2022-12-06T08:53:45.321Z,13.92
2022-12-06T08:56:13.380Z,14.65
2022-12-06T08:58:40.438Z,14.07
2022-12-06T09:01:17.854Z,13.47
2022-12-06T09:03:46.404Z,13.58
2022-12-06T09:06:24.000Z,14.00
2022-12-06T09:08:52.558Z,13.74
2022-12-06T09:11:21.039Z,14.11
2022-12-06T09:13:49.834Z,13.85
2022-12-06T09:16:23.660Z,14.95
2022-12-06T09:18:52.097Z,14.64
2022-12-06T09:21:25.511Z,14.84
2022-12-06T09:23:55.821Z,14.90
2022-12-06T09:26:26.135Z,15.06
2022-12-06T09:28:54.316Z,14.82
2022-12-06T09:31:21.435Z,15.36
2022-12-06T09:33:49.638Z,15.26
2022-12-06T09:36:27.525Z,15.53
2022-12-06T09:42:13.498Z,15.87
2022-12-06T09:44:49.106Z,15.44
2022-12-06T09:47:21.429Z,15.44
2022-12-06T09:50:27.431Z,15.01
2022-12-06T09:53:27.792Z,14.58
2022-12-06T09:56:01.812Z,14.62
2022-12-06T09:58:36.100Z,14.85
2022-12-06T10:01:38.671Z,14.91
2022-12-06T10:04:31.320Z,15.27
2022-12-06T10:07:17.041Z,15.68
2022-12-06T10:10:07.814Z,15.60
2022-12-06T10:12:40.928Z,15.22
2022-12-06T10:15:45.531Z,14.57
2022-12-06T10:18:32.517Z,14.67
2022-12-06T10:25:15.658Z,14.77
2022-12-06T10:27:49.687Z,14.44
2022-12-06T10:30:17.725Z,14.08
2022-12-06T10:32:51.525Z,14.05
2022-12-06T10:35:44.165Z,14.43
2022-12-06T10:38:28.281Z,14.61
2022-12-06T10:41:12.289Z,14.27
2022-12-06T10:44:05.190Z,14.66
2022-12-06T10:46:58.183Z,15.34
2022-12-06T10:49:35.607Z,14.45
2022-12-06T10:52:08.968Z,14.99
2022-12-06T10:55:01.914Z,14.79
2022-12-06T10:57:32.511Z,15.59
2022-12-06T11:00:06.841Z,16.10
2022-12-06T11:02:39.851Z,15.93
2022-12-06T11:06:01.574Z,15.73
2022-12-06T11:08:46.297Z,14.62
2022-12-06T11:11:16.898Z,15.23
2022-12-06T11:13:52.450Z,15.57
2022-12-06T11:16:26.542Z,15.73
2022-12-06T11:18:56.254Z,15.47
2022-12-06T11:21:28.413Z,14.98
2022-12-06T11:24:13.480Z,14.48
2022-12-06T11:26:55.307Z,15.41
2022-12-06T11:29:22.187Z,15.73
2022-12-06T11:31:51.984Z,16.07
2022-12-06T11:34:20.489Z,16.54
2022-12-06T11:36:47.374Z,16.25
2022-12-06T11:39:14.097Z,16.50
2022-12-06T11:41:42.336Z,16.33
2022-12-06T11:44:15.740Z,15.33
2022-12-06T11:46:42.558Z,16.23
2022-12-06T11:49:20.244Z,18.39
2022-12-06T11:51:48.382Z,17.66
2022-12-06T11:54:34.032Z,17.46
2022-12-06T11:57:11.328Z,18.53
2022-12-06T11:59:39.318Z,17.91
2022-12-06T12:02:07.084Z,17.88
2022-12-06T12:04:43.437Z,17.77
2022-12-06T12:07:16.510Z,17.76
2022-12-06T12:09:51.960Z,17.90
2022-12-06T12:12:24.360Z,16.83
2022-12-06T12:14:58.646Z,17.09
2022-12-06T12:17:30.521Z,16.36
2022-12-06T12:20:00.608Z,17.38
2022-12-06T12:22:38.804Z,17.92
2022-12-06T12:25:25.992Z,18.16
2022-12-06T12:28:24.134Z,19.31
2022-12-06T12:30:55.098Z,19.24
2022-12-06T12:33:25.973Z,19.11
2022-12-06T12:36:05.353Z,19.07
2022-12-06T12:38:58.510Z,19.46
2022-12-06T12:41:31.740Z,20.12
2022-12-06T12:44:37.139Z,19.61
2022-12-06T12:46:55.544Z,18.94
2022-12-06T12:49:40.257Z,19.28
2022-12-06T12:52:35.586Z,18.73
2022-12-06T12:55:15.385Z,19.71
2022-12-06T12:57:43.867Z,19.73
2022-12-06T13:00:43.831Z,19.33
2022-12-06T13:03:34.936Z,19.19
2022-12-06T13:06:00.785Z,19.94
2022-12-06T13:08:33.613Z,19.83
2022-12-06T13:11:00.747Z,19.22
2022-12-06T13:13:41.169Z,20.12
2022-12-06T13:16:12.346Z,20.13
2022-12-06T13:18:43.584Z,20.15
2022-12-06T13:21:32.058Z,20.52
2022-12-06T13:24:20.004Z,21.82
2022-12-06T13:26:49.720Z,20.56
2022-12-06T13:29:25.921Z,21.32
2022-12-06T13:31:53.969Z,22.11
2022-12-06T13:34:37.808Z,21.78
2022-12-06T13:37:36.863Z,22.53
2022-12-06T13:40:05.336Z,22.25
2022-12-06T13:42:42.246Z,22.84
2022-12-06T13:45:40.870Z,22.10
2022-12-06T13:48:54.848Z,22.42
2022-12-06T13:51:34.457Z,22.28
2022-12-06T13:54:04.027Z,21.97
2022-12-06T13:56:39.726Z,22.75
2022-12-06T13:59:18.486Z,22.07
2022-12-06T14:01:54.952Z,22.09
2022-12-06T14:06:59.547Z,23.58
2022-12-06T14:09:26.881Z,22.87
2022-12-06T14:11:53.765Z,21.60
2022-12-06T14:14:24.816Z,22.04
2022-12-06T14:16:57.103Z,22.86
2022-12-06T14:19:45.985Z,22.81
2022-12-06T14:22:29.090Z,23.83
2022-12-06T14:24:59.832Z,23.76
2022-12-06T14:27:41.659Z,24.03
2022-12-06T14:30:29.176Z,23.72
2022-12-06T14:32:58.197Z,22.47
2022-12-06T14:35:32.309Z,23.01
2022-12-06T14:38:00.986Z,23.83
2022-12-06T14:40:46.383Z,23.16
2022-12-06T14:43:17.111Z,23.08
2022-12-06T14:45:43.938Z,22.46
2022-12-06T14:48:11.356Z,22.82
2022-12-06T14:50:51.156Z,23.45
2022-12-06T14:53:37.590Z,22.18
2022-12-06T14:56:22.246Z,23.38
2022-12-06T14:58:49.120Z,22.50
2022-12-06T15:01:37.332Z,23.48
2022-12-06T15:04:07.384Z,23.80
2022-12-06T15:06:35.321Z,23.89
2022-12-06T15:09:02.418Z,22.62
2022-12-06T15:11:34.540Z,23.43
2022-12-06T15:14:23.748Z,24.10
2022-12-06T15:17:11.815Z,23.07
2022-12-06T15:19:53.369Z,24.78
2022-12-06T15:22:25.842Z,24.52
2022-12-06T15:24:53.516Z,22.86
2022-12-06T15:27:20.789Z,23.14
2022-12-06T15:29:47.944Z,24.54
2022-12-06T15:32:15.551Z,24.19
2022-12-06T15:34:42.580Z,24.67
2022-12-06T15:37:37.650Z,25.25
2022-12-06T15:40:01.008Z,25.23
2022-12-06T15:42:28.337Z,25.24
2022-12-06T15:44:55.552Z,24.24
2022-12-06T15:47:27.328Z,24.13
2022-12-06T15:49:54.548Z,25.41
2022-12-06T15:52:21.696Z,25.84
2022-12-06T15:54:51.462Z,25.25
2022-12-06T15:57:18.710Z,24.42
2022-12-06T15:59:50.666Z,23.80
2022-12-06T16:02:18.580Z,24.60
2022-12-06T16:04:46.008Z,24.81
2022-12-06T16:07:13.096Z,25.44
2022-12-06T16:09:40.029Z,24.86
2022-12-06T16:12:09.117Z,24.72
2022-12-06T16:14:36.390Z,24.42
2022-12-06T16:17:03.258Z,24.50
2022-12-06T16:19:30.326Z,26.56
2022-12-06T16:21:57.435Z,25.60
2022-12-06T16:24:24.600Z,27.48
2022-12-06T16:26:51.709Z,25.53
2022-12-06T16:29:20.389Z,25.92
2022-12-06T16:31:47.534Z,25.73
2022-12-06T16:34:14.908Z,26.43
2022-12-06T16:37:01.704Z,25.76
2022-12-06T16:39:56.451Z,27.04
2022-12-06T16:42:23.402Z,27.72
2022-12-06T16:44:50.370Z,27.17
2022-12-06T16:47:17.300Z,26.40
2022-12-06T16:49:46.928Z,27.54
2022-12-06T16:52:15.738Z,27.31
2022-12-06T16:54:42.954Z,27.90
2022-12-06T16:57:17.825Z,27.59
2022-12-06T16:59:50.819Z,27.96
2022-12-06T17:02:30.965Z,28.29
2022-12-06T17:05:02.084Z,29.60
2022-12-06T17:07:29.845Z,30.36
2022-12-06T17:10:03.215Z,32.70
2022-12-06T17:12:35.704Z,31.51
2022-12-06T17:15:03.256Z,30.04
2022-12-06T17:17:30.418Z,29.69
2022-12-06T17:19:57.549Z,28.95
2022-12-06T17:22:24.687Z,29.45
2022-12-06T17:24:53.588Z,29.09
2022-12-06T17:27:23.308Z,28.18
2022-12-06T17:29:50.984Z,28.45
2022-12-06T17:32:17.713Z,28.22
2022-12-06T17:34:44.575Z,28.60
2022-12-06T17:37:12.662Z,29.23
2022-12-06T17:39:39.613Z,29.69
2022-12-06T17:42:06.394Z,29.76
2022-12-06T17:44:34.721Z,30.41
2022-12-06T17:47:02.172Z,30.12
2022-12-06T17:49:28.967Z,29.73
2022-12-06T17:51:56.745Z,30.57
2022-12-06T17:54:23.915Z,31.73
2022-12-06T17:56:53.283Z,31.42
2022-12-06T17:59:22.566Z,32.01
2022-12-06T18:04:37.873Z,31.95
2022-12-06T18:07:04.941Z,32.89
2022-12-06T18:13:01.184Z,33.26
2022-12-06T18:15:31.212Z,34.19
2022-12-06T18:17:57.953Z,33.94
2022-12-06T18:20:25.049Z,33.87
2022-12-06T18:22:54.075Z,34.36
2022-12-06T18:25:21.131Z,35.57
2022-12-06T18:27:47.906Z,35.47
2022-12-06T18:30:15.548Z,34.99
2022-12-06T18:32:42.293Z,33.66
2022-12-06T18:38:27.912Z,32.63
2022-12-06T18:41:08.793Z,32.85
2022-12-06T18:43:36.789Z,33.69
2022-12-06T18:46:11.365Z,34.04
2022-12-06T18:48:39.651Z,32.73
2022-12-06T18:51:10.646Z,31.41
2022-12-06T18:53:37.761Z,33.83
2022-12-06T18:56:09.557Z,34.04
2022-12-06T18:58:36.429Z,34.23
2022-12-06T19:01:30.111Z,33.53
2022-12-06T19:04:01.294Z,33.08
2022-12-06T19:06:29.999Z,42.77
2022-12-06T19:09:00.918Z,47.80
2022-12-06T19:11:27.756Z,36.42
2022-12-06T19:13:54.921Z,35.94
2022-12-06T19:16:24.065Z,35.61
2022-12-06T19:18:50.982Z,36.22
2022-12-06T19:21:18.052Z,36.59
2022-12-06T19:23:45.183Z,35.71
2022-12-06T19:26:13.184Z,35.70
2022-12-06T19:28:41.161Z,35.56
2022-12-06T19:31:09.893Z,37.78
2022-12-06T19:33:38.505Z,35.07
2022-12-06T19:36:07.136Z,40.27
2022-12-06T19:38:34.066Z,38.93
2022-12-06T19:41:05.087Z,37.41
2022-12-06T19:43:32.417Z,40.57
2022-12-06T19:46:16.877Z,40.67
2022-12-06T19:48:43.827Z,42.87
2022-12-06T19:51:10.724Z,38.37
2022-12-06T19:53:38.680Z,42.31
2022-12-06T19:56:07.061Z,39.30
2022-12-06T19:58:34.015Z,41.36
2022-12-06T20:01:00.982Z,46.45
2022-12-06T20:03:27.975Z,41.50
2022-12-06T20:06:18.591Z,39.36
2022-12-06T20:08:45.639Z,40.22
2022-12-06T20:11:13.945Z,46.01
2022-12-06T20:13:40.942Z,44.27
2022-12-06T20:16:08.783Z,39.04
2022-12-06T20:18:35.912Z,58.75
2022-12-06T20:21:02.743Z,43.64
2022-12-06T20:23:31.849Z,40.11
2022-12-06T20:25:59.545Z,38.02
2022-12-06T20:28:26.282Z,47.49
2022-12-06T20:30:53.145Z,42.70
2022-12-06T20:33:20.147Z,42.64
2022-12-06T20:35:47.432Z,38.67
2022-12-06T20:38:14.677Z,36.97
2022-12-06T20:40:41.667Z,41.92
2022-12-06T20:43:08.418Z,37.47
2022-12-06T20:45:39.524Z,36.55
2022-12-06T20:48:08.710Z,35.92
2022-12-06T20:50:35.563Z,36.16
2022-12-06T20:53:03.273Z,38.15
2022-12-06T20:55:30.112Z,35.61
2022-12-06T20:57:56.913Z,35.37
2022-12-06T21:00:25.315Z,35.54
2022-12-06T21:02:56.300Z,35.51
2022-12-06T21:05:23.212Z,34.16
2022-12-06T21:07:50.072Z,35.35
2022-12-06T21:10:17.084Z,33.34
2022-12-06T21:13:04.352Z,33.44
2022-12-06T21:15:32.951Z,33.93
2022-12-06T21:17:59.820Z,35.29
2022-12-06T21:20:26.784Z,34.43
2022-12-06T21:22:53.658Z,42.31
2022-12-06T21:25:21.215Z,41.57
2022-12-06T21:27:48.214Z,38.49
2022-12-06T21:30:15.331Z,34.55
2022-12-06T21:32:44.859Z,34.89
2022-12-06T21:35:14.205Z,35.15
2022-12-06T21:41:21.615Z,34.98
2022-12-06T21:43:48.341Z,36.24
2022-12-06T21:46:19.709Z,35.55
2022-12-06T21:49:12.788Z,35.78
2022-12-06T21:51:40.045Z,34.91
2022-12-06T21:54:09.095Z,36.20
2022-12-06T21:56:36.448Z,35.06
2022-12-06T21:59:04.002Z,34.37
2022-12-06T22:01:44.810Z,32.67
2022-12-06T22:04:11.637Z,32.86
2022-12-06T22:06:39.612Z,33.24
2022-12-06T22:09:07.895Z,34.67
2022-12-06T22:11:46.432Z,34.11
2022-12-06T22:14:13.297Z,32.35
2022-12-06T22:16:40.265Z,33.52
2022-12-06T22:19:07.559Z,33.41
2022-12-06T22:21:34.511Z,34.93
2022-12-06T22:24:03.111Z,34.71
2022-12-06T22:26:30.785Z,36.12
2022-12-06T22:29:09.373Z,34.37
2022-12-06T22:31:37.153Z,32.68
2022-12-06T22:34:05.233Z,32.94
2022-12-06T22:36:32.707Z,31.40
2022-12-06T22:39:02.426Z,33.87
2022-12-06T22:41:31.443Z,34.70
2022-12-06T22:44:00.019Z,35.86
2022-12-06T22:46:28.307Z,34.63
2022-12-06T22:48:58.691Z,35.23
2022-12-06T22:51:35.928Z,36.55
2022-12-06T22:54:07.651Z,35.48
2022-12-06T22:56:34.403Z,34.16
2022-12-06T22:59:01.508Z,33.44
2022-12-06T23:01:30.113Z,31.48
2022-12-06T23:03:58.226Z,31.69
2022-12-06T23:06:25.529Z,31.48
2022-12-06T23:08:53.070Z,32.86
2022-12-06T23:11:23.799Z,32.11
2022-12-06T23:13:51.746Z,32.84
2022-12-06T23:16:23.323Z,31.85
2022-12-06T23:18:50.278Z,32.28
2022-12-06T23:21:21.885Z,31.13
2022-12-06T23:23:50.498Z,31.43
2022-12-06T23:26:30.890Z,30.78
2022-12-06T23:28:58.105Z,30.59
2022-12-06T23:31:48.310Z,30.12
2022-12-06T23:34:20.110Z,29.16
2022-12-06T23:36:47.255Z,30.29
2022-12-06T23:39:14.074Z,29.52
2022-12-06T23:41:42.253Z,29.61
2022-12-06T23:44:11.140Z,30.81
2022-12-06T23:46:38.973Z,29.69
2022-12-06T23:49:08.153Z,29.40
2022-12-06T23:51:36.517Z,29.91
2022-12-06T23:54:06.718Z,29.38
2022-12-06T23:56:36.135Z,29.42
2022-12-06T23:59:03.463Z,28.78
